Time,TemperatureF,DewpointF,PressureIn,WindDirection,WindDirectionDegrees,WindSpeedMPH,WindSpeedGustMPH,Humidity,HourlyPrecipIn,Conditions,Clouds,dailyrainin,SoftwareType,DateUTC
2013-04-10 00:10:00,63.9,57.3,29.87,SW,225,0.0,-999.0,79,-99.99,,,0.00,Acu-Link.com,2013-04-10 04:10:00,
2013-04-10 00:25:00,63.1,57.2,29.87,ESE,112,0.0,-999.0,81,-99.99,,,0.00,Acu-Link.com,2013-04-10 04:25:00,
2013-04-10 00:40:00,62.6,57.4,29.87,NW,315,1.7,-999.0,83,-99.99,,,0.00,Acu-Link.com,2013-04-10 04:40:00,
2013-04-10 01:26:00,63.1,57.5,29.87,WNW,292,0.0,-999.0,82,-99.99,,,0.00,Acu-Link.com,2013-04-10 05:26:00,
2013-04-10 01:41:00,63.5,57.9,29.87,South,180,0.0,-999.0,82,-99.99,,,0.00,Acu-Link.com,2013-04-10 05:41:00,
2013-04-10 01:57:00,62.6,57.4,29.86,ESE,112,1.7,-999.0,83,-99.99,,,0.00,Acu-Link.com,2013-04-10 05:57:00,
2013-04-10 02:12:00,63.7,57.4,29.86,SE,135,4.7,-999.0,80,-99.99,,,0.00,Acu-Link.com,2013-04-10 06:12:00,
2013-04-10 02:27:00,63.5,56.9,29.86,SSW,202,1.7,-999.0,79,-99.99,,,0.00,Acu-Link.com,2013-04-10 06:27:00,
2013-04-10 02:42:00,62.6,56.3,29.86,SSW,202,0.0,-999.0,80,-99.99,,,0.00,Acu-Link.com,2013-04-10 06:42:00,
2013-04-10 02:57:00,62.6,56.7,29.85,West,270,0.0,-999.0,81,-99.99,,,0.00,Acu-Link.com,2013-04-10 06:57:00,
2013-04-10 03:13:00,63.1,56.8,29.84,ESE,112,2.2,-999.0,80,-99.99,,,0.00,Acu-Link.com,2013-04-10 07:13:00,
2013-04-10 03:28:00,63.1,56.8,29.84,SSE,157,2.7,-999.0,80,-99.99,,,0.00,Acu-Link.com,2013-04-10 07:28:00,
2013-04-10 03:43:00,62.8,56.5,29.84,NW,315,0.0,-999.0,80,-99.99,,,0.00,Acu-Link.com,2013-04-10 07:43:00,
2013-04-10 03:58:00,62.1,55.9,29.83,SE,135,0.0,-999.0,80,-99.99,,,0.00,Acu-Link.com,2013-04-10 07:58:00,
2013-04-10 04:14:00,61.7,55.8,29.83,WSW,247,0.0,-999.0,81,-99.99,,,0.00,Acu-Link.com,2013-04-10 08:14:00,
2013-04-10 04:29:00,61.2,55.7,29.83,WNW,292,0.0,-999.0,82,-99.99,,,0.00,Acu-Link.com,2013-04-10 08:29:00,
2013-04-10 04:44:00,60.4,55.5,29.83,West,270,0.0,-999.0,84,-99.99,,,0.00,Acu-Link.com,2013-04-10 08:44:00,
2013-04-10 04:59:00,60.8,55.6,29.83,SW,225,0.0,-999.0,83,-99.99,,,0.00,Acu-Link.com,2013-04-10 08:59:00,
2013-04-10 05:14:00,60.4,55.2,29.83,SSW,202,1.7,-999.0,83,-99.99,,,0.00,Acu-Link.com,2013-04-10 09:14:00,
2013-04-10 05:29:00,60.4,55.2,29.84,SSE,157,2.2,-999.0,83,-99.99,,,0.00,Acu-Link.com,2013-04-10 09:29:00,
2013-04-10 05:44:00,62.1,55.2,29.84,West,270,1.7,-999.0,78,-99.99,,,0.00,Acu-Link.com,2013-04-10 09:44:00,
2013-04-10 06:00:00,61.5,54.9,29.84,SSW,202,1.1,-999.0,79,-99.99,,,0.00,Acu-Link.com,2013-04-10 10:00:00,
2013-04-10 06:15:00,62.2,54.9,29.85,SE,135,1.1,-999.0,77,-99.99,,,0.00,Acu-Link.com,2013-04-10 10:15:00,
2013-04-10 06:30:00,61.5,54.6,29.85,South,180,1.7,-999.0,78,-99.99,,,0.00,Acu-Link.com,2013-04-10 10:30:00,
2013-04-10 06:45:00,61.0,54.4,29.85,SSE,157,1.7,-999.0,79,-99.99,,,0.00,Acu-Link.com,2013-04-10 10:45:00,
2013-04-10 07:00:00,60.4,54.2,29.86,SSE,157,1.7,-999.0,80,-99.99,,,0.00,Acu-Link.com,2013-04-10 11:00:00,
2013-04-10 07:16:00,61.2,54.6,29.86,West,270,2.2,-999.0,79,-99.99,,,0.00,Acu-Link.com,2013-04-10 11:16:00,
2013-04-10 07:31:00,62.2,54.9,29.87,SSW,202,2.7,-999.0,77,-99.99,,,0.00,Acu-Link.com,2013-04-10 11:31:00,
2013-04-10 08:01:00,64.4,55.6,29.88,SSE,157,3.7,-999.0,73,-99.99,,,0.00,Acu-Link.com,2013-04-10 12:01:00,
2013-04-10 08:16:00,65.1,55.5,29.88,West,270,2.2,-999.0,71,-99.99,,,0.00,Acu-Link.com,2013-04-10 12:16:00,
2013-04-10 08:32:00,65.7,55.6,29.88,WSW,247,6.8,-999.0,70,-99.99,,,0.00,Acu-Link.com,2013-04-10 12:32:00,
2013-04-10 08:47:00,68.7,56.5,29.88,SSW,202,4.2,-999.0,65,-99.99,,,0.00,Acu-Link.com,2013-04-10 12:47:00,
2013-04-10 09:17:00,72.0,57.3,29.89,SSE,157,4.7,-999.0,60,-99.99,,,0.00,Acu-Link.com,2013-04-10 13:17:00,
2013-04-10 09:33:00,73.0,57.8,29.89,ESE,112,6.8,-999.0,59,-99.99,,,0.00,Acu-Link.com,2013-04-10 13:33:00,
2013-04-10 09:48:00,76.1,59.7,29.89,WNW,292,5.8,-999.0,57,-99.99,,,0.00,Acu-Link.com,2013-04-10 13:48:00,
2013-04-10 10:03:00,73.9,58.7,29.89,SSW,202,8.3,-999.0,59,-99.99,,,0.00,Acu-Link.com,2013-04-10 14:03:00,
2013-04-10 10:18:00,73.4,59.1,29.89,SE,135,6.3,-999.0,61,-99.99,,,0.00,Acu-Link.com,2013-04-10 14:18:00,
2013-04-10 10:33:00,77.2,61.3,29.90,ESE,112,4.7,-999.0,58,-99.99,,,0.00,Acu-Link.com,2013-04-10 14:33:00,
2013-04-10 10:49:00,78.8,62.3,29.89,North,0,6.8,-999.0,57,-99.99,,,0.00,Acu-Link.com,2013-04-10 14:49:00,
2013-04-10 11:04:00,80.2,62.0,29.89,NNW,337,8.3,-999.0,54,-99.99,,,0.00,Acu-Link.com,2013-04-10 15:04:00,
2013-04-10 11:19:00,82.4,64.1,29.89,West,270,5.3,-999.0,54,-99.99,,,0.00,Acu-Link.com,2013-04-10 15:19:00,
2013-04-10 11:34:00,81.3,63.0,29.89,NNW,337,9.9,-999.0,54,-99.99,,,0.00,Acu-Link.com,2013-04-10 15:34:00,
2013-04-10 11:49:00,80.1,62.5,29.89,South,180,4.2,-999.0,55,-99.99,,,0.00,Acu-Link.com,2013-04-10 15:49:00,
2013-04-10 12:05:00,81.9,63.6,29.88,East,90,7.8,-999.0,54,-99.99,,,0.00,Acu-Link.com,2013-04-10 16:05:00,
2013-04-10 12:20:00,82.6,63.7,29.87,North,0,5.3,-999.0,53,-99.99,,,0.00,Acu-Link.com,2013-04-10 16:20:00,
2013-04-10 12:35:00,82.0,62.6,29.88,NNW,337,7.8,-999.0,52,-99.99,,,0.00,Acu-Link.com,2013-04-10 16:35:00,
2013-04-10 12:50:00,82.6,63.2,29.87,WNW,292,10.4,-999.0,52,-99.99,,,0.00,Acu-Link.com,2013-04-10 16:50:00,
2013-04-10 13:06:00,82.0,62.6,29.86,NE,45,3.2,-999.0,52,-99.99,,,0.00,Acu-Link.com,2013-04-10 17:06:00,
2013-04-10 13:36:00,83.1,61.9,29.85,ESE,112,11.4,-999.0,49,-99.99,,,0.00,Acu-Link.com,2013-04-10 17:36:00,
2013-04-10 13:52:00,82.2,61.7,29.85,ESE,112,8.9,-999.0,50,-99.99,,,0.00,Acu-Link.com,2013-04-10 17:52:00,
2013-04-10 14:07:00,81.5,61.0,29.84,ESE,112,2.7,-999.0,50,-99.99,,,0.00,Acu-Link.com,2013-04-10 18:07:00,
2013-04-10 14:22:00,85.3,62.8,29.83,West,270,8.9,-999.0,47,-99.99,,,0.00,Acu-Link.com,2013-04-10 18:22:00,
2013-04-10 14:37:00,84.6,61.5,29.83,ESE,112,4.2,-999.0,46,-99.99,,,0.00,Acu-Link.com,2013-04-10 18:37:00,
2013-04-10 14:53:00,85.3,62.1,29.82,West,270,8.3,-999.0,46,-99.99,,,0.00,Acu-Link.com,2013-04-10 18:53:00,
2013-04-10 15:08:00,87.1,62.5,29.81,WNW,292,10.9,-999.0,44,-99.99,,,0.00,Acu-Link.com,2013-04-10 19:08:00,
2013-04-10 15:23:00,87.1,61.9,29.80,North,0,9.9,-999.0,43,-99.99,,,0.00,Acu-Link.com,2013-04-10 19:23:00,
2013-04-10 15:38:00,84.7,60.3,29.78,South,180,6.8,-999.0,44,-99.99,,,0.00,Acu-Link.com,2013-04-10 19:38:00,
2013-04-10 15:54:00,86.0,60.9,29.77,WNW,292,7.3,-999.0,43,-99.99,,,0.00,Acu-Link.com,2013-04-10 19:54:00,
2013-04-10 16:09:00,87.1,61.9,29.75,WNW,292,6.3,-999.0,43,-99.99,,,0.00,Acu-Link.com,2013-04-10 20:09:00,
2013-04-10 16:24:00,87.6,61.6,29.75,WNW,292,4.7,-999.0,42,-99.99,,,0.00,Acu-Link.com,2013-04-10 20:24:00,
2013-04-10 16:39:00,84.4,60.7,29.74,SSE,157,6.8,-999.0,45,-99.99,,,0.00,Acu-Link.com,2013-04-10 20:39:00,
2013-04-10 16:54:00,84.7,61.0,29.74,West,270,7.3,-999.0,45,-99.99,,,0.00,Acu-Link.com,2013-04-10 20:54:00,
2013-04-10 17:10:00,85.1,60.7,29.73,West,270,7.3,-999.0,44,-99.99,,,0.00,Acu-Link.com,2013-04-10 21:10:00,
2013-04-10 17:25:00,84.2,60.5,29.74,West,270,3.2,-999.0,45,-99.99,,,0.00,Acu-Link.com,2013-04-10 21:25:00,
2013-04-10 17:40:00,83.5,60.5,29.73,SW,225,6.3,-999.0,46,-99.99,,,0.00,Acu-Link.com,2013-04-10 21:40:00,
2013-04-10 17:55:00,83.8,60.2,29.72,SSE,157,12.5,-999.0,45,-99.99,,,0.00,Acu-Link.com,2013-04-10 21:55:00,
2013-04-10 18:41:00,83.1,60.1,29.70,SSE,157,3.2,-999.0,46,-99.99,,,0.00,Acu-Link.com,2013-04-10 22:41:00,
2013-04-10 18:56:00,82.9,60.0,29.69,South,180,6.3,-999.0,46,-99.99,,,0.00,Acu-Link.com,2013-04-10 22:56:00,
2013-04-10 19:27:00,81.1,59.5,29.68,SSE,157,6.8,-999.0,48,-99.99,,,0.00,Acu-Link.com,2013-04-10 23:27:00,
2013-04-10 19:42:00,79.9,59.0,29.68,SSE,157,7.3,-999.0,49,-99.99,,,0.00,Acu-Link.com,2013-04-10 23:42:00,
2013-04-10 19:57:00,79.0,59.3,29.68,South,180,4.7,-999.0,51,-99.99,,,0.00,Acu-Link.com,2013-04-10 23:57:00,
2013-04-10 20:12:00,77.9,58.8,29.67,SSW,202,3.2,-999.0,52,-99.99,,,0.00,Acu-Link.com,2013-04-11 00:12:00,
2013-04-10 20:28:00,77.2,58.7,29.66,West,270,2.7,-999.0,53,-99.99,,,0.00,Acu-Link.com,2013-04-11 00:28:00,
2013-04-10 20:43:00,76.1,58.2,29.66,North,0,2.2,-999.0,54,-99.99,,,0.00,Acu-Link.com,2013-04-11 00:43:00,
2013-04-10 20:58:00,75.2,57.9,29.67,SSE,157,3.7,-999.0,55,-99.99,,,0.00,Acu-Link.com,2013-04-11 00:58:00,
2013-04-10 21:14:00,74.8,58.0,29.66,South,180,2.2,-999.0,56,-99.99,,,0.00,Acu-Link.com,2013-04-11 01:14:00,
2013-04-10 21:29:00,73.4,57.7,29.66,West,270,0.0,-999.0,58,-99.99,,,0.00,Acu-Link.com,2013-04-11 01:29:00,
2013-04-10 21:44:00,72.9,57.7,29.66,SSW,202,1.7,-999.0,59,-99.99,,,0.00,Acu-Link.com,2013-04-11 01:44:00,
2013-04-10 21:59:00,72.0,57.3,29.67,SSW,202,1.1,-999.0,60,-99.99,,,0.00,Acu-Link.com,2013-04-11 01:59:00,
2013-04-10 22:14:00,71.1,57.4,29.66,East,90,1.1,-999.0,62,-99.99,,,0.00,Acu-Link.com,2013-04-11 02:14:00,
2013-04-10 22:30:00,70.7,57.0,29.66,ESE,112,2.2,-999.0,62,-99.99,,,0.00,Acu-Link.com,2013-04-11 02:30:00,
2013-04-10 22:45:00,70.5,56.8,29.65,West,270,1.7,-999.0,62,-99.99,,,0.00,Acu-Link.com,2013-04-11 02:45:00,
2013-04-10 23:00:00,70.5,56.8,29.66,ESE,112,2.2,-999.0,62,-99.99,,,0.00,Acu-Link.com,2013-04-11 03:00:00,
2013-04-10 23:15:00,69.4,56.2,29.66,NE,45,0.0,-999.0,63,-99.99,,,0.00,Acu-Link.com,2013-04-11 03:15:00,
2013-04-10 23:30:00,69.8,56.2,29.67,SSW,202,2.7,-999.0,62,-99.99,,,0.00,Acu-Link.com,2013-04-11 03:30:00,
2013-04-10 23:46:00,70.3,55.7,29.68,SE,135,1.7,-999.0,60,-99.99,,,0.00,Acu-Link.com,2013-04-11 03:46:00,